Etusivu
METAR-TAF:

METAR-TAF

Lentoasemat :

Tulcea, Romania

Leveyspiiri: 45-11N, Pituuspiiri: 028-49E, korkeus merenpinnasta: 4 m

Tämänhetkinen sää

Tämä raportti tehtiin 15 minuuttia sitten, kello 01.00 UTC
Tuuli 6 kn pohjoisesta
Lämpötila -1°C
Kosteus 93%
Ilmanpaine 1019 hPa
Näkyvyys: 0400 m
jäätävää sumua

METAR: LRTC 280100Z AUTO 35006KT 0400 R34/0450N FZFG VV001 M01/M02 Q1019

Aika: 03:15 (01:15 UTC)

Sääennuste

Tämä raportti tehtiin 8 tuntia ja 23 minuuttia sitten, kello 16.52 UTC
Ennuste voimassa 27. päivästä klo 16 UTC - 28. päivään klo 00 UTC
Tuuli 8 kn pohjoisen/luoteesta
Näkyvyys: 0100 m
100 ft:n korkeudessa
jäätävää sumua
Ajoittain
27. päivästä klo 16 UTC - 27. päivään klo 18 UTC
Näkyvyys: 0800 m
Hajanaisia pilviä 500 ft:n korkeudessa

TAF: LRTC 271652Z 2716/2800 34008KT 0100 FZFG VV001 TEMPO 2716/2718 0800 SCT005

Säähavainnot ja -ennusteet yli 4000 lentoasemalta (METAR- ja TAF-raportit).

Käytössä olevat sääasemat on merkitty karttaan keltaisilla ja punaisilla pisteillä.

Aseta hiiri pisteen päälle nähdäksesi sääaseman nimen.

Klikkaa sitten nähdäksesi säähavainnot ja -ennusteet.

Kartan vaihtaminen: klikkaa mustalla rastilla varustettuja vihreitä pisteitä, niin voit zoomata sisään; viivalla varustettua vihreää pistettä, niin voit zoomata ulos tai vihreitä nuolia, niin pääset viereisille kartoille.


METAR-TAF: